ePrivacy and GPDR Cookie Consent by Cookie Consent
EmailTwitter


Observations de surface / France / LFBO (07630)

Régions: Québec | Canada | États-Unis | Europe | France | UK | Ailleurs
Station
Affichage
Infos & localisation pour LFBO (07630) | Aide pour décoder les METARs

Observations prises le 2021-09-18 à 07H00 UTC à TOULOUSE/BLAGNAC, FR (LFBO)

Etat du ciel: couvert.

Température: 17.0 Celsius

Point de rosée: 15.0 Celsius

Humidité relative: 88%

Indice Humidex 21.

Vents: Nord-ouest à 7 km/h ou 4 noeuds.

Pression au niveau moyen de la mer: 101.60 kilopascals.

Visibilité horizontale: 6.21 milles terrestres ou 9.94 kilomètres.

Hauteur du plafond: 549 mètres ( 1800 pieds ).

Observation METAR:

LFBO 180700Z AUTO 30004KT 250V330 9999 BKN018 OVC043 17/15 Q1016 BECMG BKN012=